createdAt,value
2022-11-12T00:00:51.288Z,6.90
2022-11-12T00:03:37.280Z,6.75
2022-11-12T00:06:23.330Z,6.66
2022-11-12T00:09:09.235Z,6.75
2022-11-12T00:11:54.727Z,6.79
2022-11-12T00:14:40.214Z,6.67
2022-11-12T00:17:25.949Z,6.84
2022-11-12T00:20:12.516Z,6.68
2022-11-12T00:22:58.504Z,6.69
2022-11-12T00:25:45.737Z,6.79
2022-11-12T00:28:37.370Z,6.84
2022-11-12T00:31:23.851Z,6.90
2022-11-12T00:34:09.418Z,7.32
2022-11-12T00:36:55.451Z,7.50
2022-11-12T00:39:41.241Z,7.68
2022-11-12T00:42:27.069Z,7.48
2022-11-12T00:45:12.794Z,7.49
2022-11-12T00:47:59.224Z,7.17
2022-11-12T00:50:45.390Z,7.43
2022-11-12T00:53:31.130Z,7.33
2022-11-12T00:56:17.694Z,7.33
2022-11-12T00:59:03.843Z,7.48
2022-11-12T01:01:49.806Z,7.40
2022-11-12T01:04:35.624Z,7.20
2022-11-12T01:07:21.276Z,7.17
2022-11-12T01:10:08.731Z,7.20
2022-11-12T01:12:55.126Z,6.94
2022-11-12T01:15:42.935Z,7.02
2022-11-12T01:18:29.392Z,7.01
2022-11-12T01:21:15.531Z,7.08
2022-11-12T01:24:02.043Z,7.15
2022-11-12T01:26:48.700Z,7.58
2022-11-12T01:29:34.352Z,7.64
2022-11-12T01:32:19.913Z,7.72
2022-11-12T01:35:06.722Z,7.59
2022-11-12T01:37:52.249Z,7.50
2022-11-12T01:40:38.034Z,7.43
2022-11-12T01:43:27.227Z,7.35
2022-11-12T01:46:30.107Z,7.70
2022-11-12T01:49:27.376Z,7.39
2022-11-12T01:52:26.765Z,7.43
2022-11-12T01:55:23.048Z,7.41
2022-11-12T01:58:14.747Z,7.37
2022-11-12T02:01:03.420Z,7.28
2022-11-12T02:03:49.522Z,7.79
2022-11-12T02:06:37.524Z,7.94
2022-11-12T02:09:24.173Z,8.01
2022-11-12T02:12:29.904Z,7.96
2022-11-12T02:15:15.897Z,7.88
2022-11-12T02:18:02.268Z,7.97
2022-11-12T02:20:59.028Z,8.35
2022-11-12T02:23:44.737Z,7.99
2022-11-12T02:26:37.026Z,7.61
2022-11-12T02:29:23.402Z,7.75
2022-11-12T02:32:09.216Z,7.93
2022-11-12T02:34:55.003Z,7.82
2022-11-12T02:37:40.672Z,7.89
2022-11-12T02:40:26.985Z,7.97
2022-11-12T02:43:12.860Z,8.10
2022-11-12T02:45:58.602Z,8.13
2022-11-12T02:48:45.064Z,8.07
2022-11-12T02:51:30.916Z,8.06
2022-11-12T02:54:16.534Z,8.27
2022-11-12T02:57:02.770Z,8.22
2022-11-12T02:59:58.660Z,8.26
2022-11-12T03:02:58.928Z,8.51
2022-11-12T03:05:53.923Z,8.60
2022-11-12T03:08:40.145Z,8.64
2022-11-12T03:11:27.339Z,8.31
2022-11-12T03:14:13.213Z,8.81
2022-11-12T03:17:00.027Z,8.26
2022-11-12T03:19:46.567Z,8.43
2022-11-12T03:22:32.171Z,8.56
2022-11-12T03:25:17.955Z,8.85
2022-11-12T03:28:13.240Z,8.84
2022-11-12T03:31:01.242Z,8.48
2022-11-12T03:33:47.723Z,8.21
2022-11-12T03:36:35.056Z,8.31
2022-11-12T03:39:21.228Z,8.54
2022-11-12T03:42:07.851Z,8.52
2022-11-12T03:44:53.783Z,8.54
2022-11-12T03:47:54.206Z,8.50
2022-11-12T03:50:41.345Z,8.75
2022-11-12T03:53:30.990Z,8.64
2022-11-12T03:57:00.719Z,8.39
2022-11-12T03:59:36.222Z,8.27
2022-11-12T04:02:22.353Z,8.03
2022-11-12T04:05:30.857Z,8.34
2022-11-12T04:08:38.936Z,8.31
2022-11-12T04:11:25.510Z,8.47
2022-11-12T04:14:11.472Z,8.53
2022-11-12T04:17:16.660Z,8.19
2022-11-12T04:20:21.314Z,8.12
2022-11-12T04:23:07.154Z,7.73
2022-11-12T04:26:12.173Z,7.94
2022-11-12T04:29:16.718Z,8.32
2022-11-12T04:32:02.837Z,7.78
2022-11-12T04:34:50.425Z,8.15
2022-11-12T04:37:46.953Z,7.87
2022-11-12T04:40:51.702Z,7.98
2022-11-12T04:43:56.799Z,7.95
2022-11-12T04:46:42.770Z,8.29
2022-11-12T04:49:29.071Z,8.36
2022-11-12T04:52:16.286Z,8.45
2022-11-12T04:55:06.683Z,8.43
2022-11-12T04:57:57.623Z,8.36
2022-11-12T05:00:47.789Z,8.06
2022-11-12T05:03:33.967Z,8.12
2022-11-12T05:06:49.082Z,8.49
2022-11-12T05:09:35.320Z,8.51
2022-11-12T05:12:20.787Z,8.76
2022-11-12T05:15:08.656Z,8.52
2022-11-12T05:17:54.563Z,8.35
2022-11-12T05:20:40.562Z,8.18
2022-11-12T05:23:27.416Z,8.59
2022-11-12T05:26:13.240Z,8.04
2022-11-12T05:28:59.425Z,8.49
2022-11-12T05:31:46.263Z,8.24
2022-11-12T05:34:32.195Z,8.26
2022-11-12T05:37:20.194Z,8.36
2022-11-12T05:40:07.463Z,8.47
2022-11-12T05:42:53.309Z,8.40
2022-11-12T05:45:44.647Z,7.80
2022-11-12T05:48:31.495Z,7.67
2022-11-12T05:51:17.814Z,7.94
2022-11-12T05:54:04.317Z,8.04
2022-11-12T05:56:55.830Z,8.21
2022-11-12T05:59:41.683Z,8.57
2022-11-12T06:02:27.509Z,8.38
2022-11-12T06:05:13.491Z,7.80
2022-11-12T06:07:59.732Z,8.07
2022-11-12T06:10:54.305Z,8.52
2022-11-12T06:13:40.575Z,8.83
2022-11-12T06:16:26.563Z,8.87
2022-11-12T06:19:12.198Z,8.34
2022-11-12T06:21:57.990Z,8.37
2022-11-12T06:24:44.065Z,8.05
2022-11-12T06:27:30.068Z,7.41
2022-11-12T06:30:15.957Z,7.22
2022-11-12T06:33:04.473Z,7.82
2022-11-12T06:36:03.363Z,7.73
2022-11-12T06:38:49.310Z,7.62
2022-11-12T06:41:34.973Z,7.91
2022-11-12T06:44:22.333Z,8.67
2022-11-12T06:47:09.765Z,8.83
2022-11-12T06:49:55.861Z,8.65
2022-11-12T06:52:41.460Z,8.39
2022-11-12T06:55:27.186Z,8.36
2022-11-12T06:58:13.143Z,8.34
2022-11-12T07:01:11.744Z,8.89
2022-11-12T07:04:00.754Z,9.19
2022-11-12T07:06:49.379Z,8.94
2022-11-12T07:09:35.250Z,8.37
2022-11-12T07:12:21.929Z,8.54
2022-11-12T07:15:08.220Z,8.73
2022-11-12T07:17:55.564Z,9.10
2022-11-12T07:20:41.623Z,8.84
2022-11-12T07:23:29.903Z,8.64
2022-11-12T07:26:25.325Z,8.56
2022-11-12T07:29:11.448Z,8.80
2022-11-12T07:31:58.745Z,8.88
2022-11-12T07:34:48.082Z,8.90
2022-11-12T07:37:35.942Z,9.34
2022-11-12T07:40:21.961Z,9.23
2022-11-12T07:43:13.250Z,9.19
2022-11-12T07:46:26.204Z,8.62
2022-11-12T07:49:13.288Z,8.96
2022-11-12T07:51:59.306Z,9.68
2022-11-12T07:54:45.071Z,9.31
2022-11-12T07:57:34.058Z,9.34
2022-11-12T08:00:20.097Z,9.64
2022-11-12T08:03:05.928Z,9.11
2022-11-12T08:05:52.641Z,9.07
2022-11-12T08:08:41.379Z,9.93
2022-11-12T08:11:28.255Z,9.74
2022-11-12T08:14:14.403Z,9.69
2022-11-12T08:17:00.245Z,9.99
2022-11-12T08:19:46.705Z,10.37
2022-11-12T08:22:33.265Z,10.68
2022-11-12T08:25:19.253Z,10.34
2022-11-12T08:28:10.871Z,10.72
2022-11-12T08:30:59.711Z,10.70
2022-11-12T08:33:49.374Z,10.84
2022-11-12T08:36:36.425Z,10.93
2022-11-12T08:39:22.796Z,10.66
2022-11-12T08:42:11.348Z,10.63
2022-11-12T08:44:57.844Z,10.92
2022-11-12T08:47:44.268Z,11.23
2022-11-12T08:50:31.162Z,11.03
2022-11-12T08:53:27.924Z,10.68
2022-11-12T08:56:13.844Z,10.90
2022-11-12T08:59:03.756Z,11.37
2022-11-12T09:01:52.046Z,11.04
2022-11-12T09:04:37.669Z,11.48
2022-11-12T09:10:35.860Z,10.30
2022-11-12T09:13:21.813Z,11.21
2022-11-12T09:16:10.605Z,11.47
2022-11-12T09:18:56.390Z,11.42
2022-11-12T09:21:42.459Z,10.55
2022-11-12T09:24:28.333Z,10.94
2022-11-12T09:27:14.108Z,11.29
2022-11-12T09:29:59.867Z,10.78
2022-11-12T09:32:45.496Z,11.19
2022-11-12T09:35:31.528Z,11.79
2022-11-12T09:38:18.476Z,12.36
2022-11-12T09:41:19.678Z,12.03
2022-11-12T09:44:15.958Z,12.44
2022-11-12T09:47:26.654Z,12.39
2022-11-12T09:50:37.416Z,12.53
2022-11-12T09:53:47.200Z,12.11
2022-11-12T09:56:33.415Z,12.29
2022-11-12T09:59:19.807Z,11.64
2022-11-12T10:03:12.117Z,11.72
2022-11-12T10:06:40.669Z,12.11
2022-11-12T10:10:28.829Z,12.26
2022-11-12T10:14:23.913Z,12.57
2022-11-12T10:17:40.125Z,12.85
2022-11-12T10:20:58.447Z,13.35
2022-11-12T10:23:49.718Z,14.00
2022-11-12T10:26:40.264Z,14.73
2022-11-12T10:29:59.917Z,14.60
2022-11-12T10:32:48.646Z,15.32
2022-11-12T10:35:37.003Z,16.22
2022-11-12T10:38:28.334Z,16.76
2022-11-12T10:41:34.735Z,18.15
2022-11-12T10:44:27.754Z,19.41
2022-11-12T10:47:43.123Z,20.28
2022-11-12T10:50:43.266Z,21.40
2022-11-12T10:53:40.406Z,22.82
2022-11-12T10:56:31.859Z,23.37
2022-11-12T10:59:26.860Z,22.65
2022-11-12T11:02:18.948Z,22.66
2022-11-12T11:05:26.541Z,22.13
2022-11-12T11:08:12.963Z,22.66
2022-11-12T11:11:30.823Z,23.20
2022-11-12T11:14:23.181Z,24.02
2022-11-12T11:17:18.703Z,24.04
2022-11-12T11:20:33.505Z,24.47
2022-11-12T11:24:06.589Z,23.21
2022-11-12T11:27:39.062Z,23.22
2022-11-12T11:30:25.478Z,22.77
2022-11-12T11:33:41.235Z,22.95
2022-11-12T11:37:25.600Z,23.70
2022-11-12T11:40:25.843Z,23.90
2022-11-12T11:43:37.623Z,23.75
2022-11-12T11:46:53.050Z,23.66
2022-11-12T11:49:51.287Z,22.67
2022-11-12T11:52:46.910Z,21.41
2022-11-12T11:55:55.202Z,21.68
2022-11-12T11:59:02.635Z,21.62
2022-11-12T12:02:30.687Z,22.36
2022-11-12T12:06:00.610Z,22.37
2022-11-12T12:09:26.951Z,22.86
2022-11-12T12:12:50.557Z,23.38
2022-11-12T12:16:48.402Z,22.82
2022-11-12T12:19:55.244Z,23.09
2022-11-12T12:22:52.035Z,22.67
2022-11-12T12:25:48.275Z,23.05
2022-11-12T12:29:01.786Z,22.72
2022-11-12T12:32:24.501Z,22.22
2022-11-12T12:35:27.383Z,22.77
2022-11-12T12:38:27.660Z,22.85
2022-11-12T12:41:36.591Z,22.47
2022-11-12T12:44:42.641Z,22.39
2022-11-12T12:47:42.136Z,22.22
2022-11-12T12:50:29.809Z,21.91
2022-11-12T12:53:27.431Z,22.09
2022-11-12T12:56:12.974Z,21.90
2022-11-12T12:59:03.742Z,20.53
2022-11-12T13:02:03.624Z,20.40
2022-11-12T13:04:57.299Z,20.43
2022-11-12T13:07:50.529Z,20.37
2022-11-12T13:10:39.211Z,20.21
2022-11-12T13:13:32.408Z,20.44
2022-11-12T13:17:10.817Z,20.75
2022-11-12T13:19:59.578Z,20.39
2022-11-12T13:22:49.119Z,20.53
2022-11-12T13:25:59.770Z,20.43
2022-11-12T13:29:28.623Z,20.22
2022-11-12T13:32:51.763Z,19.34
2022-11-12T13:35:41.008Z,19.24
2022-11-12T13:38:27.290Z,18.88
2022-11-12T13:41:40.754Z,19.07
2022-11-12T13:44:29.113Z,18.99
2022-11-12T13:47:24.404Z,18.94
2022-11-12T13:50:19.777Z,18.92
2022-11-12T13:53:12.975Z,19.04
2022-11-12T13:55:59.925Z,18.82
2022-11-12T13:58:45.698Z,18.77
2022-11-12T14:01:33.766Z,18.83
2022-11-12T14:04:24.414Z,18.84
2022-11-12T14:07:52.486Z,18.79
2022-11-12T14:10:46.465Z,18.61
2022-11-12T14:14:01.911Z,18.58
2022-11-12T14:17:21.004Z,18.36
2022-11-12T14:20:37.822Z,18.20
2022-11-12T14:23:25.532Z,18.16
2022-11-12T14:26:36.441Z,17.94
2022-11-12T14:29:22.299Z,17.77
2022-11-12T14:32:09.762Z,17.67
2022-11-12T14:34:56.225Z,17.55
2022-11-12T14:37:52.955Z,17.48
2022-11-12T14:41:01.428Z,17.51
2022-11-12T14:44:11.019Z,17.31
2022-11-12T14:46:59.650Z,17.14
2022-11-12T14:49:49.626Z,16.96
2022-11-12T14:52:45.736Z,16.80
2022-11-12T14:55:37.509Z,16.64
2022-11-12T14:58:34.191Z,16.58
2022-11-12T15:05:14.502Z,16.22
2022-11-12T15:09:25.453Z,16.07
2022-11-12T15:11:48.616Z,15.86
2022-11-12T15:14:36.019Z,15.73
2022-11-12T15:17:44.867Z,15.59
2022-11-12T15:20:31.521Z,15.47
2022-11-12T15:23:19.232Z,15.31
2022-11-12T15:26:41.260Z,15.05
2022-11-12T15:29:36.293Z,14.87
2022-11-12T15:35:49.312Z,14.69
2022-11-12T15:38:44.920Z,14.42
2022-11-12T15:41:34.392Z,14.14
2022-11-12T15:44:22.853Z,14.08
2022-11-12T15:47:22.138Z,14.05
2022-11-12T15:50:23.082Z,14.02
2022-11-12T15:53:30.860Z,13.69
2022-11-12T15:57:14.500Z,13.64
2022-11-12T15:59:34.831Z,13.56
2022-11-12T16:02:23.908Z,13.41
2022-11-12T16:05:16.093Z,13.15
2022-11-12T16:08:03.208Z,13.35
2022-11-12T16:10:51.314Z,13.21
2022-11-12T16:13:38.217Z,12.89
2022-11-12T16:16:28.599Z,12.78
2022-11-12T16:19:41.206Z,12.52
2022-11-12T16:22:52.962Z,12.67
2022-11-12T16:26:17.620Z,12.64
2022-11-12T16:29:19.065Z,12.16
2022-11-12T16:32:17.216Z,12.09
2022-11-12T16:35:11.152Z,12.12
2022-11-12T16:37:59.441Z,11.98
2022-11-12T16:40:48.612Z,11.78
2022-11-12T16:43:35.734Z,11.98
2022-11-12T16:46:31.049Z,11.86
2022-11-12T16:49:21.923Z,11.42
2022-11-12T16:52:39.128Z,11.06
2022-11-12T16:55:26.657Z,10.87
2022-11-12T16:58:15.808Z,11.04
2022-11-12T17:01:11.753Z,11.22
2022-11-12T17:05:14.295Z,11.15
2022-11-12T17:07:51.672Z,10.91
2022-11-12T17:10:38.819Z,10.94
2022-11-12T17:13:58.431Z,10.87
2022-11-12T17:20:30.314Z,10.92
2022-11-12T17:23:25.347Z,10.69
2022-11-12T17:26:23.368Z,10.51
2022-11-12T17:29:10.100Z,10.59
2022-11-12T17:31:56.400Z,10.78
2022-11-12T17:34:43.153Z,10.71
2022-11-12T17:37:32.612Z,10.07
2022-11-12T17:40:19.449Z,10.02
2022-11-12T17:43:07.083Z,10.15
2022-11-12T17:45:57.234Z,10.26
2022-11-12T17:48:44.718Z,10.31
2022-11-12T17:51:34.813Z,10.19
2022-11-12T17:54:21.573Z,10.25
2022-11-12T17:57:07.869Z,10.25
2022-11-12T17:59:54.117Z,10.28
2022-11-12T18:02:40.080Z,10.34
2022-11-12T18:05:27.073Z,10.20
2022-11-12T18:08:14.270Z,10.06
2022-11-12T18:11:03.008Z,9.82
2022-11-12T18:13:56.561Z,9.67
2022-11-12T18:16:42.780Z,9.66
2022-11-12T18:20:14.809Z,9.34
2022-11-12T18:23:44.356Z,8.97
2022-11-12T18:26:29.177Z,8.99
2022-11-12T18:29:15.265Z,9.24
2022-11-12T18:32:03.814Z,9.31
2022-11-12T18:34:49.919Z,9.45
2022-11-12T18:37:35.762Z,9.42
2022-11-12T18:40:23.732Z,9.09
2022-11-12T18:43:13.149Z,9.32
2022-11-12T18:46:01.656Z,9.40
2022-11-12T18:48:48.347Z,9.43
2022-11-12T18:51:34.448Z,9.34
2022-11-12T18:54:20.463Z,9.27
2022-11-12T18:57:06.392Z,9.34
2022-11-12T18:59:54.991Z,9.08
2022-11-12T19:02:40.891Z,8.84
2022-11-12T19:05:27.187Z,8.79
2022-11-12T19:08:14.269Z,9.18
2022-11-12T19:11:08.500Z,8.82
2022-11-12T19:13:55.820Z,8.85
2022-11-12T19:16:44.917Z,8.79
2022-11-12T19:19:31.346Z,8.77
2022-11-12T19:22:17.156Z,8.84
2022-11-12T19:25:04.213Z,8.77
2022-11-12T19:27:50.610Z,8.72
2022-11-12T19:30:39.104Z,8.38
2022-11-12T19:33:25.285Z,8.04
2022-11-12T19:36:17.156Z,8.02
2022-11-12T19:39:03.178Z,7.95
2022-11-12T19:41:49.690Z,8.14
2022-11-12T19:44:36.225Z,8.04
2022-11-12T19:47:21.978Z,8.41
2022-11-12T19:50:09.850Z,8.79
2022-11-12T19:52:55.830Z,8.78
2022-11-12T19:55:42.381Z,8.75
2022-11-12T19:58:29.715Z,8.51
2022-11-12T20:01:19.410Z,8.58
2022-11-12T20:04:05.337Z,8.54
2022-11-12T20:06:51.495Z,8.30
2022-11-12T20:09:38.226Z,8.28
2022-11-12T20:12:25.277Z,8.28
2022-11-12T20:15:11.801Z,8.31
2022-11-12T20:17:57.976Z,8.27
2022-11-12T20:20:57.848Z,7.83
2022-11-12T20:23:45.403Z,7.81
2022-11-12T20:26:31.862Z,7.97
2022-11-12T20:29:21.888Z,8.17
2022-11-12T20:32:07.914Z,8.16
2022-11-12T20:34:53.637Z,8.06
2022-11-12T20:37:39.349Z,7.96
2022-11-12T20:40:25.083Z,7.99
2022-11-12T20:43:17.370Z,7.62
2022-11-12T20:46:03.510Z,7.34
2022-11-12T20:48:49.860Z,6.82
2022-11-12T20:51:36.387Z,7.25
2022-11-12T20:54:22.732Z,7.19
2022-11-12T20:57:09.024Z,7.35
2022-11-12T20:59:54.796Z,7.39
2022-11-12T21:02:40.719Z,7.50
2022-11-12T21:05:26.383Z,7.43
2022-11-12T21:08:12.556Z,7.49
2022-11-12T21:11:03.274Z,7.30
2022-11-12T21:13:49.096Z,6.80
2022-11-12T21:16:35.260Z,6.94
2022-11-12T21:19:25.415Z,6.79
2022-11-12T21:22:11.264Z,6.82
2022-11-12T21:24:59.311Z,7.06
2022-11-12T21:27:45.340Z,7.21
2022-11-12T21:30:34.344Z,7.24
2022-11-12T21:33:21.051Z,7.41
2022-11-12T21:36:11.797Z,7.29
2022-11-12T21:39:01.928Z,7.34
2022-11-12T21:41:47.728Z,7.26
2022-11-12T21:44:33.195Z,7.29
2022-11-12T21:47:18.951Z,7.34
2022-11-12T21:50:09.627Z,6.80
2022-11-12T21:52:56.706Z,6.79
2022-11-12T21:55:42.956Z,6.69
2022-11-12T21:58:29.980Z,6.71
2022-11-12T22:01:29.164Z,6.47
2022-11-12T22:04:18.295Z,6.60
2022-11-12T22:07:05.412Z,6.65
2022-11-12T22:09:56.478Z,6.15
2022-11-12T22:13:05.036Z,6.24
2022-11-12T22:15:50.649Z,6.70
2022-11-12T22:18:37.337Z,7.04
2022-11-12T22:21:39.891Z,7.28
2022-11-12T22:24:25.964Z,7.29
2022-11-12T22:27:12.242Z,6.92
2022-11-12T22:29:58.480Z,6.84
2022-11-12T22:32:44.481Z,6.90
2022-11-12T22:35:30.145Z,6.92
2022-11-12T22:38:15.914Z,6.93
2022-11-12T22:41:16.539Z,6.87
2022-11-12T22:44:03.417Z,7.17
2022-11-12T22:46:49.409Z,7.36
2022-11-12T22:49:35.056Z,7.29
2022-11-12T22:52:21.150Z,7.26
2022-11-12T22:55:10.966Z,7.26
2022-11-12T22:58:00.248Z,7.48
2022-11-12T23:00:46.779Z,7.82
2022-11-12T23:03:34.638Z,7.67
2022-11-12T23:06:20.542Z,7.18
2022-11-12T23:09:06.699Z,6.95
2022-11-12T23:11:53.080Z,7.03
2022-11-12T23:14:38.772Z,6.57
2022-11-12T23:17:24.491Z,6.92
2022-11-12T23:20:11.235Z,7.25
2022-11-12T23:22:57.126Z,7.13
2022-11-12T23:25:44.989Z,7.21
2022-11-12T23:28:32.403Z,7.39
2022-11-12T23:31:23.908Z,7.41
2022-11-12T23:34:09.926Z,6.97
2022-11-12T23:36:55.487Z,7.20
2022-11-12T23:39:41.201Z,7.53
2022-11-12T23:42:29.509Z,7.24
2022-11-12T23:45:15.927Z,7.25
2022-11-12T23:48:02.011Z,7.02
2022-11-12T23:50:50.710Z,6.95
2022-11-12T23:53:38.275Z,7.14
2022-11-12T23:56:24.273Z,7.28
2022-11-12T23:59:10.499Z,7.06
